sensor_id;sensor_type;location;lat;lon;timestamp;P1;P2;P0
60816;PMS5003;51921;51.518;-3.188;2023-01-23T00:01:33;66;64;
60816;PMS5003;51921;51.518;-3.188;2023-01-23T00:03:58;65;61;
60816;PMS5003;51921;51.518;-3.188;2023-01-23T00:06:23;64;58;
60816;PMS5003;51921;51.518;-3.188;2023-01-23T00:08:49;54;51;
60816;PMS5003;51921;51.518;-3.188;2023-01-23T00:11:15;58;53;
60816;PMS5003;51921;51.518;-3.188;2023-01-23T00:13:40;56;54;
60816;PMS5003;51921;51.518;-3.188;2023-01-23T00:16:06;59;53;
60816;PMS5003;51921;51.518;-3.188;2023-01-23T00:18:31;55;54;
60816;PMS5003;51921;51.518;-3.188;2023-01-23T00:20:56;62;53;
60816;PMS5003;51921;51.518;-3.188;2023-01-23T00:23:21;60;54;
60816;PMS5003;51921;51.518;-3.188;2023-01-23T00:25:47;57;54;
60816;PMS5003;51921;51.518;-3.188;2023-01-23T00:28:12;51;49;
60816;PMS5003;51921;51.518;-3.188;2023-01-23T00:30:38;55;52;
60816;PMS5003;51921;51.518;-3.188;2023-01-23T00:33:04;54;52;
60816;PMS5003;51921;51.518;-3.188;2023-01-23T00:35:29;58;54;
60816;PMS5003;51921;51.518;-3.188;2023-01-23T00:37:54;61;56;
60816;PMS5003;51921;51.518;-3.188;2023-01-23T00:40:19;52;51;
60816;PMS5003;51921;51.518;-3.188;2023-01-23T00:42:44;64;57;
60816;PMS5003;51921;51.518;-3.188;2023-01-23T00:45:10;51;49;
60816;PMS5003;51921;51.518;-3.188;2023-01-23T00:47:35;60;55;
60816;PMS5003;51921;51.518;-3.188;2023-01-23T00:50:00;58;55;
60816;PMS5003;51921;51.518;-3.188;2023-01-23T00:52:26;58;55;
60816;PMS5003;51921;51.518;-3.188;2023-01-23T00:54:51;57;55;
60816;PMS5003;51921;51.518;-3.188;2023-01-23T00:57:17;53;50;
60816;PMS5003;51921;51.518;-3.188;2023-01-23T00:59:42;60;54;
60816;PMS5003;51921;51.518;-3.188;2023-01-23T01:02:07;59;54;
60816;PMS5003;51921;51.518;-3.188;2023-01-23T01:04:33;48;47;
60816;PMS5003;51921;51.518;-3.188;2023-01-23T01:06:59;50;48;
60816;PMS5003;51921;51.518;-3.188;2023-01-23T01:09:24;56;53;
60816;PMS5003;51921;51.518;-3.188;2023-01-23T01:11:51;56;52;
60816;PMS5003;51921;51.518;-3.188;2023-01-23T01:14:14;58;54;
60816;PMS5003;51921;51.518;-3.188;2023-01-23T01:16:40;58;55;
60816;PMS5003;51921;51.518;-3.188;2023-01-23T01:19:05;54;52;
60816;PMS5003;51921;51.518;-3.188;2023-01-23T01:21:31;57;49;
60816;PMS5003;51921;51.518;-3.188;2023-01-23T01:23:56;62;57;
60816;PMS5003;51921;51.518;-3.188;2023-01-23T01:26:21;61;58;
60816;PMS5003;51921;51.518;-3.188;2023-01-23T01:28:47;67;60;
60816;PMS5003;51921;51.518;-3.188;2023-01-23T01:31:13;71;65;
60816;PMS5003;51921;51.518;-3.188;2023-01-23T01:33:38;64;60;
60816;PMS5003;51921;51.518;-3.188;2023-01-23T01:36:06;57;55;
60816;PMS5003;51921;51.518;-3.188;2023-01-23T01:38:28;56;53;
60816;PMS5003;51921;51.518;-3.188;2023-01-23T01:40:54;57;53;
60816;PMS5003;51921;51.518;-3.188;2023-01-23T01:43:21;53;51;
60816;PMS5003;51921;51.518;-3.188;2023-01-23T01:48:11;58;56;
60816;PMS5003;51921;51.518;-3.188;2023-01-23T01:50:36;58;55;
60816;PMS5003;51921;51.518;-3.188;2023-01-23T01:53:02;54;52;
60816;PMS5003;51921;51.518;-3.188;2023-01-23T01:55:27;62;53;
60816;PMS5003;51921;51.518;-3.188;2023-01-23T01:57:52;52;51;
60816;PMS5003;51921;51.518;-3.188;2023-01-23T02:00:17;50;48;
60816;PMS5003;51921;51.518;-3.188;2023-01-23T02:02:44;48;45;
60816;PMS5003;51921;51.518;-3.188;2023-01-23T02:05:08;55;50;
60816;PMS5003;51921;51.518;-3.188;2023-01-23T02:07:36;44;42;
60816;PMS5003;51921;51.518;-3.188;2023-01-23T02:09:59;51;47;
60816;PMS5003;51921;51.518;-3.188;2023-01-23T02:12:25;48;45;
60816;PMS5003;51921;51.518;-3.188;2023-01-23T02:14:50;49;44;
60816;PMS5003;51921;51.518;-3.188;2023-01-23T02:17:16;43;41;
60816;PMS5003;51921;51.518;-3.188;2023-01-23T02:19:43;49;46;
60816;PMS5003;51921;51.518;-3.188;2023-01-23T02:22:09;49;47;
60816;PMS5003;51921;51.518;-3.188;2023-01-23T02:24:33;43;42;
60816;PMS5003;51921;51.518;-3.188;2023-01-23T02:26:57;54;51;
60816;PMS5003;51921;51.518;-3.188;2023-01-23T02:29:22;52;49;
60816;PMS5003;51921;51.518;-3.188;2023-01-23T02:31:48;44;42;
60816;PMS5003;51921;51.518;-3.188;2023-01-23T02:34:14;51;44;
60816;PMS5003;51921;51.518;-3.188;2023-01-23T02:36:40;46;42;
60816;PMS5003;51921;51.518;-3.188;2023-01-23T02:39:06;47;43;
60816;PMS5003;51921;51.518;-3.188;2023-01-23T02:41:31;47;46;
60816;PMS5003;51921;51.518;-3.188;2023-01-23T02:43:57;42;41;
60816;PMS5003;51921;51.518;-3.188;2023-01-23T02:46:22;49;43;
60816;PMS5003;51921;51.518;-3.188;2023-01-23T02:48:47;46;43;
60816;PMS5003;51921;51.518;-3.188;2023-01-23T02:51:13;43;42;
60816;PMS5003;51921;51.518;-3.188;2023-01-23T02:53:38;49;44;
60816;PMS5003;51921;51.518;-3.188;2023-01-23T02:56:03;48;45;
60816;PMS5003;51921;51.518;-3.188;2023-01-23T02:58:28;44;42;
60816;PMS5003;51921;51.518;-3.188;2023-01-23T03:00:54;47;42;
60816;PMS5003;51921;51.518;-3.188;2023-01-23T03:03:19;46;41;
60816;PMS5003;51921;51.518;-3.188;2023-01-23T03:05:45;51;41;
60816;PMS5003;51921;51.518;-3.188;2023-01-23T03:08:10;46;43;
60816;PMS5003;51921;51.518;-3.188;2023-01-23T03:10:35;45;41;
60816;PMS5003;51921;51.518;-3.188;2023-01-23T03:13:01;49;44;
60816;PMS5003;51921;51.518;-3.188;2023-01-23T03:15:27;40;35;
60816;PMS5003;51921;51.518;-3.188;2023-01-23T03:17:52;45;40;
60816;PMS5003;51921;51.518;-3.188;2023-01-23T03:20:18;40;37;
60816;PMS5003;51921;51.518;-3.188;2023-01-23T03:22:43;57;53;
60816;PMS5003;51921;51.518;-3.188;2023-01-23T03:25:09;46;39;
60816;PMS5003;51921;51.518;-3.188;2023-01-23T03:27:34;49;44;
60816;PMS5003;51921;51.518;-3.188;2023-01-23T03:30:00;49;44;
60816;PMS5003;51921;51.518;-3.188;2023-01-23T03:32:25;45;43;
60816;PMS5003;51921;51.518;-3.188;2023-01-23T03:34:50;45;41;
60816;PMS5003;51921;51.518;-3.188;2023-01-23T03:37:15;41;40;
60816;PMS5003;51921;51.518;-3.188;2023-01-23T03:39:40;40;38;
60816;PMS5003;51921;51.518;-3.188;2023-01-23T03:42:06;46;42;
60816;PMS5003;51921;51.518;-3.188;2023-01-23T03:44:31;44;42;
60816;PMS5003;51921;51.518;-3.188;2023-01-23T03:46:57;45;38;
60816;PMS5003;51921;51.518;-3.188;2023-01-23T03:49:23;44;38;
60816;PMS5003;51921;51.518;-3.188;2023-01-23T03:51:48;43;38;
60816;PMS5003;51921;51.518;-3.188;2023-01-23T03:54:14;50;45;
60816;PMS5003;51921;51.518;-3.188;2023-01-23T03:56:40;42;39;
60816;PMS5003;51921;51.518;-3.188;2023-01-23T03:59:05;43;38;
60816;PMS5003;51921;51.518;-3.188;2023-01-23T04:01:31;40;37;
60816;PMS5003;51921;51.518;-3.188;2023-01-23T04:03:57;41;39;
60816;PMS5003;51921;51.518;-3.188;2023-01-23T04:06:22;41;39;
60816;PMS5003;51921;51.518;-3.188;2023-01-23T04:08:47;44;39;
60816;PMS5003;51921;51.518;-3.188;2023-01-23T04:11:13;43;40;
60816;PMS5003;51921;51.518;-3.188;2023-01-23T04:13:38;40;37;
60816;PMS5003;51921;51.518;-3.188;2023-01-23T04:16:04;42;41;
60816;PMS5003;51921;51.518;-3.188;2023-01-23T04:18:28;43;41;
60816;PMS5003;51921;51.518;-3.188;2023-01-23T04:20:54;39;35;
60816;PMS5003;51921;51.518;-3.188;2023-01-23T04:23:19;44;41;
60816;PMS5003;51921;51.518;-3.188;2023-01-23T04:25:45;45;39;
60816;PMS5003;51921;51.518;-3.188;2023-01-23T04:28:10;48;43;
60816;PMS5003;51921;51.518;-3.188;2023-01-23T04:30:36;42;41;
60816;PMS5003;51921;51.518;-3.188;2023-01-23T04:33:01;43;39;
60816;PMS5003;51921;51.518;-3.188;2023-01-23T04:35:27;45;40;
60816;PMS5003;51921;51.518;-3.188;2023-01-23T04:37:52;49;46;
60816;PMS5003;51921;51.518;-3.188;2023-01-23T04:40:17;45;39;
60816;PMS5003;51921;51.518;-3.188;2023-01-23T04:42:43;42;40;
60816;PMS5003;51921;51.518;-3.188;2023-01-23T04:45:09;50;46;
60816;PMS5003;51921;51.518;-3.188;2023-01-23T04:47:34;45;40;
60816;PMS5003;51921;51.518;-3.188;2023-01-23T04:50:00;44;40;
60816;PMS5003;51921;51.518;-3.188;2023-01-23T04:52:26;50;43;
60816;PMS5003;51921;51.518;-3.188;2023-01-23T04:54:52;45;42;
60816;PMS5003;51921;51.518;-3.188;2023-01-23T04:57:17;46;41;
60816;PMS5003;51921;51.518;-3.188;2023-01-23T04:59:43;48;43;
60816;PMS5003;51921;51.518;-3.188;2023-01-23T05:02:09;46;43;
60816;PMS5003;51921;51.518;-3.188;2023-01-23T05:04:34;40;38;
60816;PMS5003;51921;51.518;-3.188;2023-01-23T05:06:59;48;40;
60816;PMS5003;51921;51.518;-3.188;2023-01-23T05:09:25;48;41;
60816;PMS5003;51921;51.518;-3.188;2023-01-23T05:11:50;44;42;
60816;PMS5003;51921;51.518;-3.188;2023-01-23T05:14:16;45;44;
60816;PMS5003;51921;51.518;-3.188;2023-01-23T05:16:41;44;42;
60816;PMS5003;51921;51.518;-3.188;2023-01-23T05:19:06;40;38;
60816;PMS5003;51921;51.518;-3.188;2023-01-23T05:21:31;53;48;
60816;PMS5003;51921;51.518;-3.188;2023-01-23T05:23:57;40;35;
60816;PMS5003;51921;51.518;-3.188;2023-01-23T05:26:23;51;46;
60816;PMS5003;51921;51.518;-3.188;2023-01-23T05:28:48;45;39;
60816;PMS5003;51921;51.518;-3.188;2023-01-23T05:31:13;48;43;
60816;PMS5003;51921;51.518;-3.188;2023-01-23T05:33:39;52;47;
60816;PMS5003;51921;51.518;-3.188;2023-01-23T05:36:04;50;48;
60816;PMS5003;51921;51.518;-3.188;2023-01-23T05:38:30;47;44;
60816;PMS5003;51921;51.518;-3.188;2023-01-23T05:41:00;46;39;
60816;PMS5003;51921;51.518;-3.188;2023-01-23T05:43:20;44;40;
60816;PMS5003;51921;51.518;-3.188;2023-01-23T05:45:46;46;43;
60816;PMS5003;51921;51.518;-3.188;2023-01-23T05:48:11;42;40;
60816;PMS5003;51921;51.518;-3.188;2023-01-23T05:50:36;45;42;
60816;PMS5003;51921;51.518;-3.188;2023-01-23T05:53:02;41;39;
60816;PMS5003;51921;51.518;-3.188;2023-01-23T05:55:27;45;40;
60816;PMS5003;51921;51.518;-3.188;2023-01-23T05:57:53;45;42;
60816;PMS5003;51921;51.518;-3.188;2023-01-23T06:00:18;47;43;
60816;PMS5003;51921;51.518;-3.188;2023-01-23T06:02:44;55;50;
60816;PMS5003;51921;51.518;-3.188;2023-01-23T06:05:09;53;45;
60816;PMS5003;51921;51.518;-3.188;2023-01-23T06:07:35;49;43;
60816;PMS5003;51921;51.518;-3.188;2023-01-23T06:10:00;48;44;
60816;PMS5003;51921;51.518;-3.188;2023-01-23T06:12:25;42;40;
60816;PMS5003;51921;51.518;-3.188;2023-01-23T06:14:51;39;38;
60816;PMS5003;51921;51.518;-3.188;2023-01-23T06:17:16;41;38;
60816;PMS5003;51921;51.518;-3.188;2023-01-23T06:19:41;42;41;
60816;PMS5003;51921;51.518;-3.188;2023-01-23T06:22:07;41;38;
60816;PMS5003;51921;51.518;-3.188;2023-01-23T06:24:32;51;43;
60816;PMS5003;51921;51.518;-3.188;2023-01-23T06:26:58;44;41;
60816;PMS5003;51921;51.518;-3.188;2023-01-23T06:29:23;37;37;
60816;PMS5003;51921;51.518;-3.188;2023-01-23T06:31:48;39;39;
60816;PMS5003;51921;51.518;-3.188;2023-01-23T06:34:14;39;39;
60816;PMS5003;51921;51.518;-3.188;2023-01-23T06:36:39;40;39;
60816;PMS5003;51921;51.518;-3.188;2023-01-23T06:39:05;42;39;
60816;PMS5003;51921;51.518;-3.188;2023-01-23T06:41:30;46;42;
60816;PMS5003;51921;51.518;-3.188;2023-01-23T06:43:55;43;43;
60816;PMS5003;51921;51.518;-3.188;2023-01-23T06:46:20;50;43;
60816;PMS5003;51921;51.518;-3.188;2023-01-23T06:48:45;42;39;
60816;PMS5003;51921;51.518;-3.188;2023-01-23T06:51:10;51;47;
60816;PMS5003;51921;51.518;-3.188;2023-01-23T06:53:36;47;44;
60816;PMS5003;51921;51.518;-3.188;2023-01-23T06:56:02;40;38;
60816;PMS5003;51921;51.518;-3.188;2023-01-23T06:58:27;52;50;
60816;PMS5003;51921;51.518;-3.188;2023-01-23T07:00:53;45;40;
60816;PMS5003;51921;51.518;-3.188;2023-01-23T07:03:18;48;44;
60816;PMS5003;51921;51.518;-3.188;2023-01-23T07:05:44;50;44;
60816;PMS5003;51921;51.518;-3.188;2023-01-23T07:08:09;50;47;
60816;PMS5003;51921;51.518;-3.188;2023-01-23T07:10:35;43;43;
60816;PMS5003;51921;51.518;-3.188;2023-01-23T07:13:00;49;47;
60816;PMS5003;51921;51.518;-3.188;2023-01-23T07:15:25;49;45;
60816;PMS5003;51921;51.518;-3.188;2023-01-23T07:17:51;53;46;
60816;PMS5003;51921;51.518;-3.188;2023-01-23T07:20:16;47;43;
60816;PMS5003;51921;51.518;-3.188;2023-01-23T07:22:42;44;44;
60816;PMS5003;51921;51.518;-3.188;2023-01-23T07:25:08;44;40;
60816;PMS5003;51921;51.518;-3.188;2023-01-23T07:27:33;46;44;
60816;PMS5003;51921;51.518;-3.188;2023-01-23T07:32:24;48;46;
60816;PMS5003;51921;51.518;-3.188;2023-01-23T07:34:50;46;43;
60816;PMS5003;51921;51.518;-3.188;2023-01-23T07:37:15;43;40;
60816;PMS5003;51921;51.518;-3.188;2023-01-23T07:39:40;52;49;
60816;PMS5003;51921;51.518;-3.188;2023-01-23T07:42:05;46;43;
60816;PMS5003;51921;51.518;-3.188;2023-01-23T07:44:31;84;80;
60816;PMS5003;51921;51.518;-3.188;2023-01-23T07:46:57;68;63;
60816;PMS5003;51921;51.518;-3.188;2023-01-23T07:49:22;52;51;
60816;PMS5003;51921;51.518;-3.188;2023-01-23T07:51:47;54;54;
60816;PMS5003;51921;51.518;-3.188;2023-01-23T07:54:12;59;56;
60816;PMS5003;51921;51.518;-3.188;2023-01-23T07:56:38;62;55;
60816;PMS5003;51921;51.518;-3.188;2023-01-23T07:59:03;55;51;
60816;PMS5003;51921;51.518;-3.188;2023-01-23T08:01:29;56;52;
60816;PMS5003;51921;51.518;-3.188;2023-01-23T08:03:54;64;56;
60816;PMS5003;51921;51.518;-3.188;2023-01-23T08:06:20;58;51;
60816;PMS5003;51921;51.518;-3.188;2023-01-23T08:08:46;50;46;
60816;PMS5003;51921;51.518;-3.188;2023-01-23T08:11:10;47;45;
60816;PMS5003;51921;51.518;-3.188;2023-01-23T08:13:36;53;49;
60816;PMS5003;51921;51.518;-3.188;2023-01-23T08:16:01;50;46;
60816;PMS5003;51921;51.518;-3.188;2023-01-23T08:18:27;53;50;
60816;PMS5003;51921;51.518;-3.188;2023-01-23T08:20:52;55;50;
60816;PMS5003;51921;51.518;-3.188;2023-01-23T08:23:18;54;53;
60816;PMS5003;51921;51.518;-3.188;2023-01-23T08:25:43;52;50;
60816;PMS5003;51921;51.518;-3.188;2023-01-23T08:28:09;56;52;
60816;PMS5003;51921;51.518;-3.188;2023-01-23T08:30:35;58;55;
60816;PMS5003;51921;51.518;-3.188;2023-01-23T08:32:59;55;53;
60816;PMS5003;51921;51.518;-3.188;2023-01-23T08:35:25;54;48;
60816;PMS5003;51921;51.518;-3.188;2023-01-23T08:37:50;55;51;
60816;PMS5003;51921;51.518;-3.188;2023-01-23T08:40:15;53;49;
60816;PMS5003;51921;51.518;-3.188;2023-01-23T08:42:40;49;48;
60816;PMS5003;51921;51.518;-3.188;2023-01-23T08:45:06;55;48;
60816;PMS5003;51921;51.518;-3.188;2023-01-23T08:47:32;56;52;
60816;PMS5003;51921;51.518;-3.188;2023-01-23T08:49:57;68;61;
60816;PMS5003;51921;51.518;-3.188;2023-01-23T08:52:22;56;48;
60816;PMS5003;51921;51.518;-3.188;2023-01-23T08:54:48;49;45;
60816;PMS5003;51921;51.518;-3.188;2023-01-23T08:57:14;49;47;
60816;PMS5003;51921;51.518;-3.188;2023-01-23T08:59:38;57;49;
60816;PMS5003;51921;51.518;-3.188;2023-01-23T09:02:04;51;49;
60816;PMS5003;51921;51.518;-3.188;2023-01-23T09:04:30;47;42;
60816;PMS5003;51921;51.518;-3.188;2023-01-23T09:06:56;51;45;
60816;PMS5003;51921;51.518;-3.188;2023-01-23T09:09:21;47;45;
60816;PMS5003;51921;51.518;-3.188;2023-01-23T09:11:47;55;53;
60816;PMS5003;51921;51.518;-3.188;2023-01-23T09:14:12;56;53;
60816;PMS5003;51921;51.518;-3.188;2023-01-23T09:16:38;65;61;
60816;PMS5003;51921;51.518;-3.188;2023-01-23T09:19:04;57;55;
60816;PMS5003;51921;51.518;-3.188;2023-01-23T09:21:30;65;63;
60816;PMS5003;51921;51.518;-3.188;2023-01-23T09:23:55;76;70;
60816;PMS5003;51921;51.518;-3.188;2023-01-23T09:26:21;65;62;
60816;PMS5003;51921;51.518;-3.188;2023-01-23T09:28:46;61;59;
60816;PMS5003;51921;51.518;-3.188;2023-01-23T09:31:12;58;53;
60816;PMS5003;51921;51.518;-3.188;2023-01-23T09:33:37;56;52;
60816;PMS5003;51921;51.518;-3.188;2023-01-23T09:36:02;57;56;
60816;PMS5003;51921;51.518;-3.188;2023-01-23T09:38:28;54;50;
60816;PMS5003;51921;51.518;-3.188;2023-01-23T09:40:54;58;55;
60816;PMS5003;51921;51.518;-3.188;2023-01-23T09:43:22;56;54;
60816;PMS5003;51921;51.518;-3.188;2023-01-23T09:45:46;55;54;
60816;PMS5003;51921;51.518;-3.188;2023-01-23T09:50:35;57;51;
60816;PMS5003;51921;51.518;-3.188;2023-01-23T09:53:02;59;56;
60816;PMS5003;51921;51.518;-3.188;2023-01-23T09:55:29;50;47;
60816;PMS5003;51921;51.518;-3.188;2023-01-23T09:57:51;50;44;
60816;PMS5003;51921;51.518;-3.188;2023-01-23T10:00:19;48;47;
60816;PMS5003;51921;51.518;-3.188;2023-01-23T10:02:42;53;49;
60816;PMS5003;51921;51.518;-3.188;2023-01-23T10:05:08;69;61;
60816;PMS5003;51921;51.518;-3.188;2023-01-23T10:07:37;71;64;
60816;PMS5003;51921;51.518;-3.188;2023-01-23T10:10:02;68;63;
60816;PMS5003;51921;51.518;-3.188;2023-01-23T10:12:28;64;59;
60816;PMS5003;51921;51.518;-3.188;2023-01-23T10:15:00;62;55;
60816;PMS5003;51921;51.518;-3.188;2023-01-23T10:17:17;66;61;
60816;PMS5003;51921;51.518;-3.188;2023-01-23T10:19:43;65;60;
60816;PMS5003;51921;51.518;-3.188;2023-01-23T10:22:08;65;57;
60816;PMS5003;51921;51.518;-3.188;2023-01-23T10:24:35;63;60;
60816;PMS5003;51921;51.518;-3.188;2023-01-23T10:26:58;69;63;
60816;PMS5003;51921;51.518;-3.188;2023-01-23T10:29:25;68;63;
60816;PMS5003;51921;51.518;-3.188;2023-01-23T10:31:47;63;61;
60816;PMS5003;51921;51.518;-3.188;2023-01-23T10:34:14;62;59;
60816;PMS5003;51921;51.518;-3.188;2023-01-23T10:36:39;67;62;
60816;PMS5003;51921;51.518;-3.188;2023-01-23T10:39:04;65;62;
60816;PMS5003;51921;51.518;-3.188;2023-01-23T10:41:28;75;65;
60816;PMS5003;51921;51.518;-3.188;2023-01-23T10:43:53;72;69;
60816;PMS5003;51921;51.518;-3.188;2023-01-23T10:46:20;72;68;
60816;PMS5003;51921;51.518;-3.188;2023-01-23T10:48:45;67;64;
60816;PMS5003;51921;51.518;-3.188;2023-01-23T10:53:35;74;69;
60816;PMS5003;51921;51.518;-3.188;2023-01-23T10:56:00;71;66;
60816;PMS5003;51921;51.518;-3.188;2023-01-23T10:58:27;67;64;
60816;PMS5003;51921;51.518;-3.188;2023-01-23T11:00:51;71;63;
60816;PMS5003;51921;51.518;-3.188;2023-01-23T11:03:18;75;65;
60816;PMS5003;51921;51.518;-3.188;2023-01-23T11:05:42;69;67;
60816;PMS5003;51921;51.518;-3.188;2023-01-23T11:10:33;73;66;
60816;PMS5003;51921;51.518;-3.188;2023-01-23T11:12:58;77;72;
60816;PMS5003;51921;51.518;-3.188;2023-01-23T11:15:25;66;63;
60816;PMS5003;51921;51.518;-3.188;2023-01-23T11:17:49;73;68;
60816;PMS5003;51921;51.518;-3.188;2023-01-23T11:22:40;69;63;
60816;PMS5003;51921;51.518;-3.188;2023-01-23T11:27:31;74;69;
60816;PMS5003;51921;51.518;-3.188;2023-01-23T11:32:21;69;69;
60816;PMS5003;51921;51.518;-3.188;2023-01-23T11:34:48;66;61;
60816;PMS5003;51921;51.518;-3.188;2023-01-23T11:37:13;62;58;
60816;PMS5003;51921;51.518;-3.188;2023-01-23T11:39:39;61;59;
60816;PMS5003;51921;51.518;-3.188;2023-01-23T11:42:03;65;58;
60816;PMS5003;51921;51.518;-3.188;2023-01-23T11:44:28;63;59;
60816;PMS5003;51921;51.518;-3.188;2023-01-23T11:47:01;61;56;
60816;PMS5003;51921;51.518;-3.188;2023-01-23T11:49:25;58;56;
60816;PMS5003;51921;51.518;-3.188;2023-01-23T11:51:46;54;53;
60816;PMS5003;51921;51.518;-3.188;2023-01-23T11:54:16;55;54;
60816;PMS5003;51921;51.518;-3.188;2023-01-23T11:56:40;55;51;
60816;PMS5003;51921;51.518;-3.188;2023-01-23T11:59:05;57;53;
60816;PMS5003;51921;51.518;-3.188;2023-01-23T12:01:28;52;49;
60816;PMS5003;51921;51.518;-3.188;2023-01-23T12:06:24;61;56;
60816;PMS5003;51921;51.518;-3.188;2023-01-23T12:08:45;64;58;
60816;PMS5003;51921;51.518;-3.188;2023-01-23T12:11:11;60;56;
60816;PMS5003;51921;51.518;-3.188;2023-01-23T12:13:39;59;56;
60816;PMS5003;51921;51.518;-3.188;2023-01-23T12:16:02;58;54;
60816;PMS5003;51921;51.518;-3.188;2023-01-23T12:18:27;53;53;
60816;PMS5003;51921;51.518;-3.188;2023-01-23T12:20:53;60;55;
60816;PMS5003;51921;51.518;-3.188;2023-01-23T12:23:20;62;56;
60816;PMS5003;51921;51.518;-3.188;2023-01-23T12:25:49;55;48;
60816;PMS5003;51921;51.518;-3.188;2023-01-23T12:28:11;58;56;
60816;PMS5003;51921;51.518;-3.188;2023-01-23T12:33:01;58;54;
60816;PMS5003;51921;51.518;-3.188;2023-01-23T12:35:29;54;54;
60816;PMS5003;51921;51.518;-3.188;2023-01-23T12:38:00;57;53;
60816;PMS5003;51921;51.518;-3.188;2023-01-23T12:40:15;51;49;
60816;PMS5003;51921;51.518;-3.188;2023-01-23T12:42:41;56;51;
60816;PMS5003;51921;51.518;-3.188;2023-01-23T12:45:06;53;51;
60816;PMS5003;51921;51.518;-3.188;2023-01-23T12:47:31;53;50;
60816;PMS5003;51921;51.518;-3.188;2023-01-23T12:49:56;56;52;
60816;PMS5003;51921;51.518;-3.188;2023-01-23T12:52:22;57;55;
60816;PMS5003;51921;51.518;-3.188;2023-01-23T12:54:47;56;52;
60816;PMS5003;51921;51.518;-3.188;2023-01-23T12:57:11;54;51;
60816;PMS5003;51921;51.518;-3.188;2023-01-23T12:59:52;56;53;
60816;PMS5003;51921;51.518;-3.188;2023-01-23T13:02:03;48;46;
60816;PMS5003;51921;51.518;-3.188;2023-01-23T13:04:34;61;56;
60816;PMS5003;51921;51.518;-3.188;2023-01-23T13:06:59;67;63;
60816;PMS5003;51921;51.518;-3.188;2023-01-23T13:09:20;60;57;
60816;PMS5003;51921;51.518;-3.188;2023-01-23T13:11:45;51;50;
60816;PMS5003;51921;51.518;-3.188;2023-01-23T13:14:15;51;50;
60816;PMS5003;51921;51.518;-3.188;2023-01-23T13:16:34;49;48;
60816;PMS5003;51921;51.518;-3.188;2023-01-23T13:19:00;49;45;
60816;PMS5003;51921;51.518;-3.188;2023-01-23T13:21:25;55;51;
60816;PMS5003;51921;51.518;-3.188;2023-01-23T13:23:51;59;54;
60816;PMS5003;51921;51.518;-3.188;2023-01-23T13:28:42;52;51;
60816;PMS5003;51921;51.518;-3.188;2023-01-23T13:31:21;50;48;
60816;PMS5003;51921;51.518;-3.188;2023-01-23T13:36:02;52;48;
60816;PMS5003;51921;51.518;-3.188;2023-01-23T13:38:27;46;44;
60816;PMS5003;51921;51.518;-3.188;2023-01-23T13:45:41;51;48;
60816;PMS5003;51921;51.518;-3.188;2023-01-23T13:50:32;52;48;
60816;PMS5003;51921;51.518;-3.188;2023-01-23T13:52:57;48;46;
60816;PMS5003;51921;51.518;-3.188;2023-01-23T13:55:23;50;45;
60816;PMS5003;51921;51.518;-3.188;2023-01-23T14:00:14;57;52;
60816;PMS5003;51921;51.518;-3.188;2023-01-23T14:02:38;57;55;
60816;PMS5003;51921;51.518;-3.188;2023-01-23T14:05:04;55;52;
60816;PMS5003;51921;51.518;-3.188;2023-01-23T14:07:29;45;42;
60816;PMS5003;51921;51.518;-3.188;2023-01-23T14:09:54;46;45;
60816;PMS5003;51921;51.518;-3.188;2023-01-23T14:12:21;51;47;
60816;PMS5003;51921;51.518;-3.188;2023-01-23T14:14:45;48;45;
60816;PMS5003;51921;51.518;-3.188;2023-01-23T14:17:10;48;44;
60816;PMS5003;51921;51.518;-3.188;2023-01-23T14:19:35;41;40;
60816;PMS5003;51921;51.518;-3.188;2023-01-23T14:22:02;40;40;
60816;PMS5003;51921;51.518;-3.188;2023-01-23T14:24:27;37;35;
60816;PMS5003;51921;51.518;-3.188;2023-01-23T14:26:52;44;42;
60816;PMS5003;51921;51.518;-3.188;2023-01-23T14:29:18;48;46;
60816;PMS5003;51921;51.518;-3.188;2023-01-23T14:31:42;40;38;
60816;PMS5003;51921;51.518;-3.188;2023-01-23T14:34:12;50;46;
60816;PMS5003;51921;51.518;-3.188;2023-01-23T14:36:34;46;44;
60816;PMS5003;51921;51.518;-3.188;2023-01-23T14:41:27;44;43;
60816;PMS5003;51921;51.518;-3.188;2023-01-23T14:43:50;42;40;
60816;PMS5003;51921;51.518;-3.188;2023-01-23T14:46:16;43;41;
60816;PMS5003;51921;51.518;-3.188;2023-01-23T14:48:41;41;40;
60816;PMS5003;51921;51.518;-3.188;2023-01-23T14:51:07;46;44;
60816;PMS5003;51921;51.518;-3.188;2023-01-23T14:53:31;45;40;
60816;PMS5003;51921;51.518;-3.188;2023-01-23T14:55:56;40;37;
60816;PMS5003;51921;51.518;-3.188;2023-01-23T14:58:22;45;39;
60816;PMS5003;51921;51.518;-3.188;2023-01-23T15:00:48;42;41;
60816;PMS5003;51921;51.518;-3.188;2023-01-23T15:03:16;42;42;
60816;PMS5003;51921;51.518;-3.188;2023-01-23T15:05:38;38;37;
60816;PMS5003;51921;51.518;-3.188;2023-01-23T15:08:04;40;39;
60816;PMS5003;51921;51.518;-3.188;2023-01-23T15:10:31;39;37;
60816;PMS5003;51921;51.518;-3.188;2023-01-23T15:12:55;38;37;
60816;PMS5003;51921;51.518;-3.188;2023-01-23T15:15:21;37;35;
60816;PMS5003;51921;51.518;-3.188;2023-01-23T15:17:45;39;36;
60816;PMS5003;51921;51.518;-3.188;2023-01-23T15:22:37;38;37;
60816;PMS5003;51921;51.518;-3.188;2023-01-23T15:27:30;44;39;
60816;PMS5003;51921;51.518;-3.188;2023-01-23T15:32:24;41;40;
60816;PMS5003;51921;51.518;-3.188;2023-01-23T15:39:36;37;37;
60816;PMS5003;51921;51.518;-3.188;2023-01-23T15:42:00;39;37;
60816;PMS5003;51921;51.518;-3.188;2023-01-23T15:44:25;34;33;
60816;PMS5003;51921;51.518;-3.188;2023-01-23T15:46:50;45;41;
60816;PMS5003;51921;51.518;-3.188;2023-01-23T15:49:15;35;35;
60816;PMS5003;51921;51.518;-3.188;2023-01-23T15:51:40;38;37;
60816;PMS5003;51921;51.518;-3.188;2023-01-23T15:54:08;41;41;
60816;PMS5003;51921;51.518;-3.188;2023-01-23T15:56:32;39;37;
60816;PMS5003;51921;51.518;-3.188;2023-01-23T15:58:57;36;35;
60816;PMS5003;51921;51.518;-3.188;2023-01-23T16:01:23;40;38;
60816;PMS5003;51921;51.518;-3.188;2023-01-23T16:03:48;31;30;
60816;PMS5003;51921;51.518;-3.188;2023-01-23T16:06:14;35;32;
60816;PMS5003;51921;51.518;-3.188;2023-01-23T16:08:38;33;31;
60816;PMS5003;51921;51.518;-3.188;2023-01-23T16:11:09;36;33;
60816;PMS5003;51921;51.518;-3.188;2023-01-23T16:13:28;35;34;
60816;PMS5003;51921;51.518;-3.188;2023-01-23T16:15:53;43;39;
60816;PMS5003;51921;51.518;-3.188;2023-01-23T16:18:19;34;32;
60816;PMS5003;51921;51.518;-3.188;2023-01-23T16:20:45;51;50;
60816;PMS5003;51921;51.518;-3.188;2023-01-23T16:23:10;41;39;
60816;PMS5003;51921;51.518;-3.188;2023-01-23T16:25:36;37;36;
60816;PMS5003;51921;51.518;-3.188;2023-01-23T16:28:01;41;39;
60816;PMS5003;51921;51.518;-3.188;2023-01-23T16:30:27;38;37;
60816;PMS5003;51921;51.518;-3.188;2023-01-23T16:32:52;35;34;
60816;PMS5003;51921;51.518;-3.188;2023-01-23T16:35:17;43;42;
60816;PMS5003;51921;51.518;-3.188;2023-01-23T16:37:43;37;35;
60816;PMS5003;51921;51.518;-3.188;2023-01-23T16:42:33;48;44;
60816;PMS5003;51921;51.518;-3.188;2023-01-23T16:44:58;41;39;